Time;durP1;ratioP1;P1;durP2;ratioP2;P2;SDS_P1;SDS_P2;PMS_P1;PMS_P2;Temp;Humidity;BMP_temperature;BMP_pressure;BME280_temperature;BME280_humidity;BME280_pressure;Samples;Min_cycle;Max_cycle;Signal;HPM_P1;HPM_P2
2022/09/02 00:02:24;;;;;;;3.10;2.10;;;;;;;25.22;60.44;101072.56;5017522;28;20077;-85
2022/09/02 00:04:51;;;;;;;3.95;2.10;;;;;;;25.23;60.27;101068.00;5013861;28;20038;-85
2022/09/02 00:07:19;;;;;;;4.53;2.28;;;;;;;25.24;60.55;101062.44;5014132;28;20046;-85
2022/09/02 00:09:46;;;;;;;4.68;2.42;;;;;;;25.25;60.33;101056.00;5013763;28;20053;-84
2022/09/02 00:12:14;;;;;;;3.42;2.10;;;;;;;25.26;60.38;101056.84;5013633;28;20405;-85
2022/09/02 00:14:41;;;;;;;4.55;2.55;;;;;;;25.28;60.38;101054.78;5014580;28;20065;-83
2022/09/02 00:17:08;;;;;;;4.28;2.30;;;;;;;25.29;60.35;101051.09;5014069;28;20046;-84
2022/09/02 00:19:37;;;;;;;3.35;2.38;;;;;;;25.28;60.35;101044.84;5013372;28;20041;-84
2022/09/02 00:22:04;;;;;;;3.10;2.10;;;;;;;25.30;60.38;101036.53;5013238;28;20493;-85
2022/09/02 00:24:32;;;;;;;4.07;2.08;;;;;;;25.30;60.27;101031.94;5012088;28;20060;-85
2022/09/02 00:26:59;;;;;;;3.28;2.20;;;;;;;25.30;60.20;101033.81;5013431;28;20046;-84
2022/09/02 00:29:27;;;;;;;4.90;2.00;;;;;;;25.32;60.19;101039.91;5013063;28;20485;-84
2022/09/02 00:31:55;;;;;;;4.30;2.78;;;;;;;25.33;60.24;101030.78;5011498;28;20489;-83
2022/09/02 00:34:23;;;;;;;4.38;2.70;;;;;;;25.33;60.26;101028.06;5012344;27;20058;-84
2022/09/02 00:36:50;;;;;;;3.25;2.03;;;;;;;25.33;60.29;101026.22;5012907;28;20069;-84
2022/09/02 00:39:18;;;;;;;3.42;2.50;;;;;;;25.33;60.03;101025.34;5012989;28;20056;-84
2022/09/02 00:41:46;;;;;;;2.83;2.45;;;;;;;25.34;60.04;101019.75;5013126;28;20053;-84
2022/09/02 00:44:15;;;;;;;4.47;2.67;;;;;;;25.35;60.06;101028.75;5012512;28;20050;-84
2022/09/02 00:46:44;;;;;;;4.07;2.30;;;;;;;25.35;60.17;101018.75;5011695;28;20053;-83
2022/09/02 00:49:24;;;;;;;3.05;1.98;;;;;;;25.34;59.98;101014.34;5011090;28;20054;-82
2022/09/02 00:52:23;;;;;;;2.65;1.88;;;;;;;25.35;59.89;101024.16;5013314;28;20466;-82
2022/09/02 00:54:55;;;;;;;4.93;2.35;;;;;;;25.36;59.78;101023.16;5011933;28;20057;-82
2022/09/02 00:57:27;;;;;;;4.13;2.30;;;;;;;25.36;59.70;101028.59;5010815;28;20489;-81
2022/09/02 01:00:16;;;;;;;4.72;2.38;;;;;;;25.36;59.80;101028.59;5012433;28;20046;-81
2022/09/02 01:02:53;;;;;;;3.50;2.40;;;;;;;25.37;59.81;101032.16;5030062;28;20102;-82
2022/09/02 01:05:24;;;;;;;3.78;2.00;;;;;;;25.37;59.66;101027.56;5030479;28;20054;-81
2022/09/02 01:07:53;;;;;;;2.67;2.03;;;;;;;25.38;59.81;101028.41;5032031;28;20400;-83
2022/09/02 01:10:24;;;;;;;3.85;2.60;;;;;;;25.37;59.79;101038.41;5030860;28;20511;-83
2022/09/02 01:12:57;;;;;;;2.83;2.28;;;;;;;25.38;59.74;101040.09;5030733;28;20057;-84
2022/09/02 01:15:25;;;;;;;3.92;2.50;;;;;;;25.38;59.75;101040.09;5030946;28;20041;-83
2022/09/02 01:17:53;;;;;;;5.28;2.58;;;;;;;25.39;59.45;101051.78;5030907;28;20064;-83
2022/09/02 01:20:24;;;;;;;4.20;2.80;;;;;;;25.38;59.72;101036.53;5031010;28;20057;-85
2022/09/02 01:22:53;;;;;;;4.43;2.30;;;;;;;25.39;59.78;101046.34;5032573;28;20050;-85
2022/09/02 01:25:24;;;;;;;4.55;2.63;;;;;;;25.38;59.65;101040.09;5031042;28;20041;-85
2022/09/02 01:27:57;;;;;;;4.07;2.50;;;;;;;25.38;59.72;101037.38;5032369;28;20053;-86
2022/09/02 01:30:25;;;;;;;3.75;2.35;;;;;;;25.39;59.76;101032.81;5032142;28;20484;-86
2022/09/02 01:32:53;;;;;;;3.65;2.63;;;;;;;25.38;59.69;101034.69;5029191;28;20057;-85
2022/09/02 01:35:21;;;;;;;4.50;2.38;;;;;;;25.39;59.84;101036.38;5030065;28;20042;-85
2022/09/02 01:37:52;;;;;;;2.97;2.38;;;;;;;25.38;59.63;101031.13;5030912;28;20065;-84
2022/09/02 01:40:25;;;;;;;4.72;2.42;;;;;;;25.38;59.65;101029.25;5032350;28;20478;-85
2022/09/02 01:42:57;;;;;;;4.85;2.70;;;;;;;25.38;59.46;101029.25;5031005;28;20045;-85
2022/09/02 01:45:24;;;;;;;4.07;2.75;;;;;;;25.38;59.43;101021.13;5032480;28;20053;-86
2022/09/02 01:47:51;;;;;;;3.03;2.15;;;;;;;25.38;59.32;101018.41;5030763;28;20064;-86
2022/09/02 01:50:19;;;;;;;3.83;2.60;;;;;;;25.38;59.40;101021.13;5032320;28;20049;-86
2022/09/02 01:52:46;;;;;;;7.15;2.70;;;;;;;25.38;59.42;101018.41;5030256;28;20061;-86
2022/09/02 01:55:14;;;;;;;2.80;2.40;;;;;;;25.39;59.39;101024.69;5032563;28;20050;-83
2022/09/02 01:57:41;;;;;;;3.50;2.50;;;;;;;25.38;59.41;101023.00;5030545;28;20053;-85
2022/09/02 02:00:12;;;;;;;3.33;2.45;;;;;;;25.38;59.33;101026.53;5014557;28;20061;-86
2022/09/02 02:02:40;;;;;;;3.58;2.83;;;;;;;25.38;59.35;101034.69;5020526;28;20515;-85
2022/09/02 02:05:12;;;;;;;3.95;2.35;;;;;;;25.38;59.30;101036.53;5030391;28;20054;-83
2022/09/02 02:07:42;;;;;;;3.90;2.67;;;;;;;25.38;59.25;101037.38;5033388;28;20053;-87
2022/09/02 02:10:12;;;;;;;3.28;2.65;;;;;;;25.37;58.85;101040.28;5030936;28;20050;-87
2022/09/02 02:12:40;;;;;;;3.97;2.80;;;;;;;25.34;58.96;101036.03;5030875;28;20411;-87
2022/09/02 02:15:11;;;;;;;3.63;2.97;;;;;;;25.31;58.96;101035.50;5030931;28;20054;-87
2022/09/02 02:17:39;;;;;;;4.03;2.92;;;;;;;25.30;59.10;101025.69;5031036;28;20401;-86
2022/09/02 02:20:08;;;;;;;5.05;2.90;;;;;;;25.29;59.09;101026.72;5014044;28;20056;-86
2022/09/02 02:22:36;;;;;;;5.88;3.50;;;;;;;25.27;59.14;101017.88;5032136;28;20054;-88
2022/09/02 02:25:06;;;;;;;3.80;2.80;;;;;;;25.26;58.97;101013.50;5030973;28;20057;-87
2022/09/02 02:27:33;;;;;;;5.63;3.38;;;;;;;25.25;58.83;101017.22;5033493;28;20049;-87
2022/09/02 02:30:07;;;;;;;5.30;3.05;;;;;;;25.22;58.99;101014.84;5034341;28;20046;-85
2022/09/02 02:32:35;;;;;;;8.23;3.63;;;;;;;25.20;58.86;101006.00;5033922;28;20489;-85
2022/09/02 02:35:03;;;;;;;3.75;2.90;;;;;;;25.19;59.22;101004.31;5033441;28;20053;-85
2022/09/02 02:37:32;;;;;;;8.18;4.53;;;;;;;25.17;59.35;100999.06;5034018;28;20052;-84
2022/09/02 02:40:00;;;;;;;3.20;2.75;;;;;;;25.18;59.24;100995.34;5034129;28;20049;-84
2022/09/02 02:42:28;;;;;;;4.57;2.80;;;;;;;25.18;59.20;100997.22;5033511;28;20053;-86
2022/09/02 02:44:56;;;;;;;3.83;2.83;;;;;;;25.19;59.19;101002.44;5033995;28;20057;-85
2022/09/02 02:47:23;;;;;;;4.18;3.00;;;;;;;25.19;58.93;101002.44;5033545;28;20046;-81
2022/09/02 02:49:51;;;;;;;3.47;3.00;;;;;;;25.18;58.94;100997.22;5033378;28;20049;-84
2022/09/02 02:52:18;;;;;;;3.70;2.80;;;;;;;25.17;58.98;100998.22;5033745;28;20057;-86
2022/09/02 02:54:46;;;;;;;3.20;2.63;;;;;;;25.14;59.03;100997.53;5033629;28;20053;-85
2022/09/02 02:57:13;;;;;;;3.70;3.13;;;;;;;25.12;58.93;100994.16;5032897;28;20500;-84
2022/09/02 02:59:40;;;;;;;3.75;2.80;;;;;;;25.11;58.91;100995.16;5033272;28;20072;-84
2022/09/02 03:02:10;;;;;;;4.05;3.08;;;;;;;25.10;59.01;100993.47;5014838;28;20060;-85
2022/09/02 03:04:38;;;;;;;4.57;2.55;;;;;;;25.10;58.99;100993.47;5013410;28;20054;-85
2022/09/02 03:07:06;;;;;;;3.78;2.80;;;;;;;25.10;58.75;100987.22;5013883;28;20477;-83
2022/09/02 03:09:34;;;;;;;4.75;3.20;;;;;;;25.09;59.13;100985.50;5012693;28;20050;-83
2022/09/02 03:12:02;;;;;;;5.07;3.28;;;;;;;25.07;58.80;100982.06;5012665;28;20061;-83
2022/09/02 03:14:31;;;;;;;6.47;3.20;;;;;;;25.06;58.67;100988.50;5012417;28;20417;-83
2022/09/02 03:16:59;;;;;;;3.13;2.72;;;;;;;25.06;58.63;100992.06;5014299;28;20046;-85
2022/09/02 03:19:26;;;;;;;4.75;3.05;;;;;;;25.05;58.60;100984.13;5013180;28;20428;-85
2022/09/02 03:21:53;;;;;;;4.80;3.05;;;;;;;25.04;58.25;100987.84;5013136;28;20065;-85
2022/09/02 03:24:22;;;;;;;5.50;3.67;;;;;;;25.01;58.24;100986.31;5013431;28;20512;-85
2022/09/02 03:26:49;;;;;;;4.07;2.97;;;;;;;24.99;58.09;100982.91;5012975;28;20045;-85
2022/09/02 03:29:17;;;;;;;6.05;3.05;;;;;;;24.97;58.13;100990.38;5013486;28;20053;-86
2022/09/02 03:31:45;;;;;;;4.50;3.15;;;;;;;24.95;58.27;100994.25;5014373;28;20053;-87
2022/09/02 03:34:13;;;;;;;4.75;3.05;;;;;;;24.95;58.17;100995.06;5014677;28;20052;-87
2022/09/02 03:36:43;;;;;;;5.63;3.38;;;;;;;24.93;58.31;100989.00;5014191;28;20049;-86
2022/09/02 03:39:13;;;;;;;5.78;2.97;;;;;;;24.93;58.33;100986.28;5012187;28;20072;-86
2022/09/02 03:41:44;;;;;;;4.45;2.75;;;;;;;24.94;58.16;100989.84;5012615;28;20054;-84
2022/09/02 03:44:12;;;;;;;3.72;2.70;;;;;;;24.95;58.37;100991.53;5012784;28;20050;-86
2022/09/02 03:46:41;;;;;;;4.13;2.97;;;;;;;24.96;58.28;100990.53;5013088;28;20057;-85
2022/09/02 03:49:10;;;;;;;3.95;3.30;;;;;;;24.94;58.22;100985.25;5012957;28;20062;-85
2022/09/02 03:51:41;;;;;;;3.17;2.60;;;;;;;24.93;57.96;100994.41;4996203;28;20054;-78
2022/09/02 03:54:10;;;;;;;3.60;2.60;;;;;;;24.95;58.13;100996.94;5012599;28;20069;-89
2022/09/02 03:56:38;;;;;;;5.25;3.30;;;;;;;24.93;58.25;100997.13;5013753;28;20041;-89
2022/09/02 03:59:06;;;;;;;3.40;2.70;;;;;;;24.95;57.96;101005.06;5013457;28;20050;-89
2022/09/02 04:01:35;;;;;;;3.47;2.72;;;;;;;24.92;57.69;101000.84;5014227;28;20523;-89
2022/09/02 04:04:05;;;;;;;3.67;2.72;;;;;;;24.91;57.36;101004.56;5020693;28;20072;-89
2022/09/02 04:06:34;;;;;;;5.70;2.70;;;;;;;24.88;57.65;101000.31;5013313;28;20046;-89
2022/09/02 04:09:04;;;;;;;3.67;2.58;;;;;;;24.88;57.35;101004.91;5013417;28;20058;-87
2022/09/02 04:11:33;;;;;;;5.18;3.38;;;;;;;24.87;57.46;101003.19;5012902;28;20050;-86
2022/09/02 04:14:00;;;;;;;3.20;2.58;;;;;;;24.86;57.47;101001.50;5012753;28;20062;-87
2022/09/02 04:16:28;;;;;;;4.25;2.60;;;;;;;24.85;57.20;100997.94;5012345;28;20049;-87
2022/09/02 04:19:02;;;;;;;3.17;2.60;;;;;;;24.86;57.26;101004.19;5012645;28;20057;-91
2022/09/02 04:21:35;;;;;;;5.22;2.88;;;;;;;24.87;57.07;101000.47;5012397;28;20390;-89
2022/09/02 04:24:08;;;;;;;;;;;;;;;24.86;57.09;100996.06;5013056;28;20409;-88
2022/09/02 04:26:38;;;;;;;4.82;2.75;;;;;;;24.88;56.92;101004.91;5012861;28;19928;-88
2022/09/02 04:29:13;;;;;;;4.78;2.50;;;;;;;24.87;57.08;100992.34;5012761;28;20054;-88
2022/09/02 04:31:42;;;;;;;3.70;2.83;;;;;;;24.87;57.07;100984.22;5012737;28;20057;-88
2022/09/02 04:34:10;;;;;;;3.63;2.60;;;;;;;24.85;57.08;100981.69;5013610;28;20057;-88
2022/09/02 04:36:39;;;;;;;3.33;2.58;;;;;;;24.85;56.89;100997.94;5013030;28;20052;-88
2022/09/02 04:39:08;;;;;;;4.97;3.05;;;;;;;24.86;56.89;100996.06;5012289;28;20054;-89
2022/09/02 04:41:36;;;;;;;3.20;2.70;;;;;;;24.85;56.99;100995.22;5012897;28;20057;-89
2022/09/02 04:44:07;;;;;;;4.80;2.55;;;;;;;24.86;56.80;101010.47;5013195;27;20402;-88
2022/09/02 04:46:38;;;;;;;3.40;2.13;;;;;;;24.86;56.66;101012.31;5012070;28;20050;-88
2022/09/02 04:49:10;;;;;;;2.93;2.47;;;;;;;24.86;56.67;101021.28;5011030;28;20412;-88
2022/09/02 04:51:39;;;;;;;3.58;2.35;;;;;;;24.87;56.70;101030.25;5012353;28;20057;-89
2022/09/02 04:54:09;;;;;;;3.97;2.47;;;;;;;24.86;56.58;101034.84;5011966;28;20057;-87
2022/09/02 04:56:39;;;;;;;3.20;2.53;;;;;;;24.87;56.65;101030.25;4996527;28;20058;-88
2022/09/02 04:59:08;;;;;;;4.65;2.22;;;;;;;24.87;56.62;101022.13;5012007;28;20049;-88
2022/09/02 05:01:40;;;;;;;2.80;2.30;;;;;;;24.86;56.48;101021.28;5012225;28;20413;-88
2022/09/02 05:04:14;;;;;;;3.05;2.30;;;;;;;24.86;56.28;101025.88;5015550;28;20054;-88
2022/09/02 05:06:45;;;;;;;6.50;2.55;;;;;;;24.85;56.51;101038.56;5027302;28;20416;-87
2022/09/02 05:09:17;;;;;;;5.13;2.47;;;;;;;24.84;56.54;101036.03;5031395;28;20054;-88
2022/09/02 05:11:51;;;;;;;3.13;2.50;;;;;;;24.83;56.58;101032.47;5032288;28;20452;-89
2022/09/02 05:14:24;;;;;;;3.45;2.53;;;;;;;24.83;56.66;101035.19;5032068;28;20046;-89
2022/09/02 05:16:53;;;;;;;3.20;2.33;;;;;;;24.83;56.72;101029.75;5031827;28;20060;-90
2022/09/02 05:19:22;;;;;;;3.67;2.50;;;;;;;24.84;56.54;101044.16;5031647;28;20076;-89
2022/09/02 05:21:56;;;;;;;3.70;2.72;;;;;;;24.83;56.60;101039.72;5031004;28;20053;-87
2022/09/02 05:24:28;;;;;;;3.10;2.42;;;;;;;24.84;56.67;101041.44;5031693;28;20054;-87
2022/09/02 05:26:59;;;;;;;4.43;2.58;;;;;;;24.85;56.80;101046.69;5030934;28;20060;-87
2022/09/02 05:29:29;;;;;;;3.63;2.60;;;;;;;24.86;56.77;101042.13;5031948;28;20045;-87
2022/09/02 05:31:57;;;;;;;3.22;2.80;;;;;;;24.87;56.75;101046.50;5031352;28;20053;-86
2022/09/02 05:34:25;;;;;;;5.82;2.78;;;;;;;24.85;56.49;101043.97;5031332;28;20053;-87
2022/09/02 05:36:56;;;;;;;4.47;2.88;;;;;;;24.84;56.80;101049.56;5030552;28;20053;-87
2022/09/02 05:39:28;;;;;;;6.72;2.83;;;;;;;24.83;56.84;101045.13;5030119;28;20500;-85
2022/09/02 05:41:56;;;;;;;3.78;2.63;;;;;;;24.80;56.74;101038.22;5030458;28;20523;-85
2022/09/02 05:44:25;;;;;;;3.42;2.47;;;;;;;24.81;56.90;101042.59;5030725;28;20042;-86
2022/09/02 05:46:54;;;;;;;3.65;2.53;;;;;;;24.81;56.81;101053.44;5030492;28;20065;-86
2022/09/02 05:49:22;;;;;;;5.03;2.75;;;;;;;24.81;56.84;101047.19;5030275;28;20504;-86
2022/09/02 05:51:58;;;;;;;9.23;3.13;;;;;;;24.82;56.87;101054.28;5030179;28;20057;-84
2022/09/02 05:54:34;;;;;;;3.35;2.65;;;;;;;24.83;56.97;101056.84;5030479;28;20060;-87
2022/09/02 05:57:08;;;;;;;4.40;2.78;;;;;;;24.83;56.82;101053.25;5030718;28;20068;-86
2022/09/02 05:59:41;;;;;;;3.22;2.47;;;;;;;24.82;56.74;101055.13;5031956;28;20053;-87
2022/09/02 06:02:12;;;;;;;3.47;2.90;;;;;;;24.81;56.88;101053.44;5035113;28;20049;-87
2022/09/02 06:04:48;;;;;;;4.05;2.50;;;;;;;24.81;57.24;101049.88;5034198;28;20056;-87
2022/09/02 06:07:17;;;;;;;3.40;3.00;;;;;;;24.80;57.29;101057.16;5020020;28;20050;-87
2022/09/02 06:09:48;;;;;;;4.80;2.75;;;;;;;24.79;57.45;101055.44;5013798;28;20061;-86
2022/09/02 06:12:19;;;;;;;4.50;2.90;;;;;;;24.82;57.28;101068.66;5014056;28;20049;-86
2022/09/02 06:14:47;;;;;;;4.63;2.30;;;;;;;24.82;57.36;101059.69;5014502;28;20050;-87
2022/09/02 06:17:16;;;;;;;4.80;2.85;;;;;;;24.83;57.51;101058.69;5014018;28;20061;-86
2022/09/02 06:19:50;;;;;;;4.70;3.10;;;;;;;24.84;57.41;101054.97;4998278;28;20064;-84
2022/09/02 06:22:21;;;;;;;5.03;2.70;;;;;;;24.85;57.54;101060.22;5015280;28;20485;-87
2022/09/02 06:24:51;;;;;;;3.63;2.70;;;;;;;24.88;57.40;101056.34;5015187;28;20432;-84
2022/09/02 06:27:22;;;;;;;5.10;3.25;;;;;;;24.90;57.47;101051.59;5014978;28;20046;-87
2022/09/02 06:29:52;;;;;;;3.50;2.28;;;;;;;24.91;57.40;101062.28;5014937;28;20046;-85
2022/09/02 06:32:22;;;;;;;4.72;3.10;;;;;;;24.93;57.47;101062.13;5013192;28;20394;-87
2022/09/02 06:34:55;;;;;;;6.13;3.70;;;;;;;24.96;57.51;101050.13;5014088;28;20050;-85
2022/09/02 06:37:25;;;;;;;4.88;3.67;;;;;;;24.95;57.45;101051.97;5013225;28;20061;-84
2022/09/02 06:39:53;;;;;;;8.82;4.75;;;;;;;24.96;57.22;101050.97;5013472;28;20053;-85
2022/09/02 06:42:26;;;;;;;7.13;3.87;;;;;;;24.96;57.33;101053.69;5023654;28;20495;-85
2022/09/02 06:45:13;;;;;;;7.97;4.38;;;;;;;24.98;57.64;101048.94;5019719;28;20496;-88
2022/09/02 06:47:41;;;;;;;4.95;3.85;;;;;;;24.99;57.68;101045.19;5033946;27;20053;-87
2022/09/02 06:50:08;;;;;;;9.75;4.22;;;;;;;24.98;57.19;101054.34;5033877;28;20053;-88
2022/09/02 06:52:38;;;;;;;5.00;4.30;;;;;;;24.99;57.14;101052.47;5032974;28;20059;-84
2022/09/02 06:55:07;;;;;;;5.18;3.70;;;;;;;24.99;57.46;101050.63;5033404;27;20045;-79
2022/09/02 06:57:36;;;;;;;6.82;3.47;;;;;;;25.01;57.68;101056.72;5032623;28;20045;-82
2022/09/02 07:00:09;;;;;;;9.10;3.70;;;;;;;25.02;57.88;101055.72;5032260;28;20049;-87
2022/09/02 07:02:37;;;;;;;9.40;4.35;;;;;;;24.98;57.78;101048.94;5032268;28;20045;-79
2022/09/02 07:05:14;;;;;;;7.57;3.95;;;;;;;24.94;57.35;101057.53;5032121;28;20050;-83
2022/09/02 07:07:48;;;;;;;9.50;4.00;;;;;;;24.93;57.33;101056.72;5032108;28;20131;-82
2022/09/02 07:10:15;;;;;;;11.10;5.53;;;;;;;24.91;56.82;101058.72;5032072;27;20500;-80
2022/09/02 07:12:49;;;;;;;8.60;4.78;;;;;;;24.86;56.77;101063.78;5032015;28;20053;-81
2022/09/02 07:15:17;;;;;;;5.68;4.28;;;;;;;24.81;57.03;101064.28;5033516;28;20400;-78
2022/09/02 07:17:44;;;;;;;10.35;3.60;;;;;;;24.78;57.48;101067.28;5031516;28;20060;-79
2022/09/02 07:20:18;;;;;;;6.07;3.78;;;;;;;24.75;57.17;101061.34;5031054;28;20053;-79
2022/09/02 07:22:51;;;;;;;5.43;4.10;;;;;;;24.70;57.13;101061.00;5031153;28;20056;-78
2022/09/02 07:25:20;;;;;;;6.03;4.25;;;;;;;24.66;57.54;101053.19;5031415;28;20061;-81
2022/09/02 07:27:50;;;;;;;6.97;4.82;;;;;;;24.63;57.58;101047.25;5031635;28;20045;-80
2022/09/02 07:30:18;;;;;;;6.43;3.40;;;;;;;24.62;57.79;101048.25;5030836;28;20060;-82
2022/09/02 07:32:48;;;;;;;4.45;3.55;;;;;;;24.64;58.26;101051.69;5032423;28;20037;-79
2022/09/02 07:35:19;;;;;;;5.38;3.50;;;;;;;24.70;57.84;101055.59;5029457;28;20523;-78
2022/09/02 07:37:48;;;;;;;4.82;3.50;;;;;;;24.71;57.81;101058.13;5011326;28;20046;-78
2022/09/02 07:40:16;;;;;;;6.32;3.30;;;;;;;24.75;57.74;101061.34;5010821;28;20062;-82
2022/09/02 07:42:46;;;;;;;8.40;3.53;;;;;;;24.76;57.67;101060.38;5014551;28;20045;-79
2022/09/02 07:45:14;;;;;;;8.18;3.83;;;;;;;24.80;57.79;101046.34;5031529;28;20053;-80
2022/09/02 07:47:43;;;;;;;8.35;3.35;;;;;;;24.86;57.73;101047.53;5014632;28;20057;-78
2022/09/02 07:50:15;;;;;;;10.50;3.92;;;;;;;24.94;57.72;101041.31;5030447;28;20390;-80
2022/09/02 07:52:57;;;;;;;7.53;4.70;;;;;;;25.03;57.39;101053.84;5032198;28;20041;-85
2022/09/02 07:55:29;;;;;;;8.43;4.25;;;;;;;25.09;57.08;101050.53;5031214;27;20056;-81
2022/09/02 07:57:57;;;;;;;4.75;4.00;;;;;;;25.12;57.06;101047.50;5030982;27;20060;-83
2022/09/02 08:00:26;;;;;;;5.10;3.88;;;;;;;25.14;57.05;101051.72;5030399;28;20057;-81
2022/09/02 08:02:58;;;;;;;4.50;3.53;;;;;;;25.09;57.15;101043.25;5030070;28;20065;-81
2022/09/02 08:05:32;;;;;;;7.80;4.35;;;;;;;25.04;57.17;101042.88;5030887;28;20046;-78
2022/09/02 08:07:59;;;;;;;6.93;3.80;;;;;;;25.03;57.32;101045.72;5019730;28;20524;-81
2022/09/02 08:10:28;;;;;;;4.57;3.53;;;;;;;25.03;57.39;101046.56;5034751;27;20064;-81
2022/09/02 08:12:59;;;;;;;6.45;3.97;;;;;;;25.02;56.88;101038.63;5031587;28;20038;-83
2022/09/02 08:15:29;;;;;;;6.45;3.70;;;;;;;24.96;56.69;101044.72;5031719;28;20045;-79
2022/09/02 08:17:57;;;;;;;4.97;4.43;;;;;;;24.90;56.60;101046.19;5031335;28;20478;-78
2022/09/02 08:20:24;;;;;;;5.05;3.70;;;;;;;24.87;56.99;101049.22;5031204;28;20492;-80
2022/09/02 08:22:52;;;;;;;7.35;3.15;;;;;;;24.81;56.83;101039.91;5031814;28;20052;-77
2022/09/02 08:38:49;;;;;;;6.88;3.15;;;;;;;24.89;56.58;101042.63;5149235;27;20366;-73
2022/09/02 08:41:21;;;;;;;5.15;2.70;;;;;;;24.97;55.88;101044.53;5151871;27;20054;-73
2022/09/02 08:43:52;;;;;;;5.55;3.17;;;;;;;25.07;54.50;101047.94;5152184;27;20405;-74
2022/09/02 08:46:24;;;;;;;6.57;2.90;;;;;;;25.11;55.16;101043.91;5151993;27;20623;-72
2022/09/02 08:48:58;;;;;;;5.47;3.00;;;;;;;25.12;55.70;101048.34;5152171;27;20055;-73
2022/09/02 08:52:00;;;;;;;5.50;3.05;;;;;;;25.12;54.65;101051.06;5151865;27;20539;-73
2022/09/02 08:54:35;;;;;;;3.63;3.25;;;;;;;25.16;54.16;101043.44;5151816;27;20035;-73
2022/09/02 08:57:02;;;;;;;3.40;2.67;;;;;;;25.20;54.47;101038.53;5152119;27;20519;-73
2022/09/02 08:59:30;;;;;;;5.97;3.42;;;;;;;25.24;54.30;101042.59;5123980;27;20494;-73
2022/09/02 09:02:25;;;;;;;6.95;3.53;;;;;;;25.29;54.77;101051.94;5110221;28;20040;-73
2022/09/02 09:05:08;;;;;;;6.00;3.45;;;;;;;25.30;55.05;101053.63;5110480;28;20398;-73
2022/09/02 09:07:58;;;;;;;3.33;2.80;;;;;;;25.32;54.96;101061.59;5110731;28;20043;-73
2022/09/02 09:11:02;;;;;;;3.92;3.03;;;;;;;25.31;55.10;101062.59;5129639;28;20047;-73
2022/09/02 09:13:43;;;;;;;3.53;2.90;;;;;;;25.29;54.66;101060.06;5130653;28;20043;-72
2022/09/02 09:16:18;;;;;;;3.00;2.30;;;;;;;25.26;54.63;101048.72;5130655;28;20406;-72
2022/09/02 09:19:16;;;;;;;3.83;2.53;;;;;;;25.23;54.68;101041.75;5130968;28;20039;-73
2022/09/02 09:21:43;;;;;;;3.80;2.58;;;;;;;25.22;54.64;101045.47;5124455;28;20063;-72
2022/09/02 09:24:33;;;;;;;3.65;2.88;;;;;;;25.20;54.35;101047.53;5130381;28;20047;-73
2022/09/02 09:27:04;;;;;;;3.58;2.45;;;;;;;25.19;54.48;101044.97;5130295;28;20039;-72
2022/09/02 09:29:35;;;;;;;4.32;2.50;;;;;;;25.18;54.65;101044.13;5130750;28;20055;-73
2022/09/02 09:32:05;;;;;;;3.30;2.70;;;;;;;25.18;54.72;101037.84;5130015;28;20043;-72
2022/09/02 09:35:01;;;;;;;3.92;3.03;;;;;;;25.18;55.14;101033.28;5130339;28;20051;-71
2022/09/02 09:37:40;;;;;;;4.57;2.83;;;;;;;25.16;54.66;101035.31;5109568;28;20071;-71
2022/09/02 09:40:27;;;;;;;3.72;2.70;;;;;;;25.15;55.09;101029.03;5096447;28;20063;-71
2022/09/02 09:43:13;;;;;;;5.60;3.38;;;;;;;25.15;54.81;101030.88;5095989;28;20048;-72
2022/09/02 09:45:44;;;;;;;4.20;3.22;;;;;;;25.12;54.48;101033.97;5096074;28;20055;-72
2022/09/02 09:48:31;;;;;;;5.45;2.53;;;;;;;25.12;55.14;101023.13;5096255;28;20051;-73
2022/09/02 09:50:58;;;;;;;4.03;3.15;;;;;;;25.11;54.61;101027.66;5096153;28;20490;-72
2022/09/02 09:53:28;;;;;;;3.85;2.60;;;;;;;25.09;53.77;101021.56;5095947;28;20067;-72
2022/09/02 09:56:04;;;;;;;3.42;2.42;;;;;;;25.07;53.76;101020.84;5095694;28;20043;-73
2022/09/02 09:58:45;;;;;;;3.50;2.90;;;;;;;25.06;53.84;101030.00;5096126;28;20040;-71
2022/09/02 10:01:22;;;;;;;3.05;2.67;;;;;;;25.05;54.02;101028.31;5095644;28;20044;-72
2022/09/02 10:03:57;;;;;;;3.90;2.50;;;;;;;25.03;52.79;101019.47;5095683;28;20055;-73
2022/09/02 10:06:37;;;;;;;4.55;2.33;;;;;;;25.00;52.93;101019.00;5095566;28;20044;-72
2022/09/02 10:09:14;;;;;;;2.95;2.47;;;;;;;24.99;53.15;101020.81;5096392;27;20040;-72
2022/09/02 10:12:06;;;;;;;3.28;2.50;;;;;;;24.96;53.35;101014.91;5094412;28;20048;-72
2022/09/02 10:14:44;;;;;;;4.15;2.55;;;;;;;24.95;53.78;101014.03;5095908;28;20044;-72
2022/09/02 10:17:33;;;;;;;4.22;2.47;;;;;;;24.97;53.86;101022.88;5095786;28;20051;-72
2022/09/02 10:20:09;;;;;;;4.15;2.40;;;;;;;24.97;53.93;101014.75;5095340;28;20051;-72
2022/09/02 10:22:40;;;;;;;2.72;2.22;;;;;;;25.01;53.84;101013.41;5094231;28;20052;-72
2022/09/02 10:25:30;;;;;;;3.40;2.55;;;;;;;25.04;53.89;101004.94;5095211;28;20043;-72
2022/09/02 10:28:14;;;;;;;4.50;2.42;;;;;;;25.09;52.17;101007.19;5095706;28;20043;-72
2022/09/02 10:30:59;;;;;;;;;;;;;;;25.14;52.99;101004.81;5095354;28;20051;-72
2022/09/02 10:33:33;;;;;;;4.05;2.15;;;;;;;25.17;52.59;101006.38;5095093;28;20294;-72
2022/09/02 10:36:13;;;;;;;3.90;2.55;;;;;;;25.15;51.95;100995.66;5094924;28;20482;-73
2022/09/02 10:38:49;;;;;;;3.33;2.50;;;;;;;25.15;52.39;101001.94;5095429;28;20047;-72
2022/09/02 10:41:38;;;;;;;5.20;2.85;;;;;;;25.14;52.40;100999.41;5094856;28;20052;-72
2022/09/02 10:44:31;;;;;;;4.78;2.63;;;;;;;25.12;51.62;100985.19;5094995;28;20052;-72
2022/09/02 10:47:43;;;;;;;4.07;2.60;;;;;;;25.09;51.65;100988.22;5094752;28;20469;-72
2022/09/02 10:50:40;;;;;;;6.63;2.92;;;;;;;25.15;50.83;100984.84;5091489;28;20435;-72
2022/09/02 10:53:12;;;;;;;2.78;2.20;;;;;;;25.18;51.17;100983.66;5094898;28;20051;-72
2022/09/02 10:55:57;;;;;;;4.15;3.00;;;;;;;25.17;50.56;100976.56;5093512;28;20055;-72
2022/09/02 10:58:54;;;;;;;2.85;2.20;;;;;;;25.14;50.03;100984.00;5094424;28;20047;-72
2022/09/02 11:01:35;;;;;;;2.88;2.38;;;;;;;25.13;50.54;100981.47;5094517;28;20063;-72
2022/09/02 11:04:15;;;;;;;3.20;2.50;;;;;;;25.11;50.29;100972.63;5092945;28;20055;-72
2022/09/02 11:06:50;;;;;;;4.50;2.78;;;;;;;25.10;50.80;100970.94;5093320;28;20040;-71
2022/09/02 11:09:29;;;;;;;3.78;2.50;;;;;;;25.09;51.44;100966.56;5093371;28;20055;-72
2022/09/02 11:12:04;;;;;;;5.35;2.55;;;;;;;25.07;50.96;100963.13;5092457;28;20047;-72
2022/09/02 11:14:39;;;;;;;4.00;2.80;;;;;;;25.07;50.66;100963.13;5094282;28;20048;-71
2022/09/02 11:17:09;;;;;;;2.83;2.28;;;;;;;25.07;50.50;100966.66;5092873;28;20052;-71
2022/09/02 11:19:52;;;;;;;3.83;2.40;;;;;;;25.07;50.93;100965.81;5094326;28;20044;-72
2022/09/02 11:22:25;;;;;;;3.13;2.10;;;;;;;25.07;51.21;100960.41;5094046;28;20052;-71
2022/09/02 11:25:06;;;;;;;3.08;2.30;;;;;;;25.09;51.39;100956.56;5094055;28;20502;-72
2022/09/02 11:27:58;;;;;;;4.80;2.28;;;;;;;25.12;51.77;100968.94;5113644;28;20036;-72
2022/09/02 11:30:51;;;;;;;3.42;2.58;;;;;;;25.11;51.15;100962.66;5114595;28;20044;-71
2022/09/02 11:33:30;;;;;;;;;;;;;;;25.11;51.18;100953.69;5114203;28;20054;-72
2022/09/02 11:35:58;;;;;;;3.05;2.30;;;;;;;25.12;51.18;100963.53;5103822;28;19920;-72
2022/09/02 11:38:32;;;;;;;2.65;2.45;;;;;;;25.12;51.44;100967.06;5092303;28;20048;-71
2022/09/02 11:41:21;;;;;;;6.13;2.60;;;;;;;25.14;52.10;100956.91;5093425;28;20051;-72
2022/09/02 11:44:34;;;;;;;3.05;2.22;;;;;;;25.14;51.57;100959.59;5093933;28;20048;-72
2022/09/02 11:47:09;;;;;;;4.13;2.70;;;;;;;25.15;50.85;100952.31;5092627;28;20044;-72
2022/09/02 11:49:42;;;;;;;5.07;2.53;;;;;;;25.16;51.45;100954.03;5090996;28;20044;-72
2022/09/02 11:52:37;;;;;;;3.63;2.30;;;;;;;25.15;50.69;100947.75;5093307;28;20478;-72
2022/09/02 11:55:20;;;;;;;5.45;2.75;;;;;;;25.17;51.20;100953.03;5093890;28;20391;-72
2022/09/02 11:57:56;;;;;;;3.13;2.38;;;;;;;25.17;51.33;100944.91;5093810;28;20048;-72
2022/09/02 12:00:53;;;;;;;5.22;2.45;;;;;;;25.18;51.04;100941.16;5091479;28;20410;-72
2022/09/02 12:03:28;;;;;;;4.68;2.70;;;;;;;25.23;50.99;100943.38;5093183;28;20071;-72
2022/09/02 12:06:20;;;;;;;3.90;2.47;;;;;;;25.29;50.26;100940.84;5093393;28;20048;-72
2022/09/02 12:08:48;;;;;;;2.83;2.60;;;;;;;25.34;50.28;100935.75;5093739;28;20032;-72